createdAt,value
2019-04-05T00:00:09.645Z,82.33
2019-04-05T00:02:39.411Z,85.87
2019-04-05T00:05:09.372Z,99.37
2019-04-05T00:07:38.872Z,107.17
2019-04-05T00:10:09.582Z,113.90
2019-04-05T00:12:39.281Z,118.47
2019-04-05T00:15:15.450Z,135.43
2019-04-05T00:17:40.204Z,137.77
2019-04-05T00:20:09.993Z,137.70
2019-04-05T00:22:39.446Z,143.90
2019-04-05T00:25:09.059Z,149.13
2019-04-05T00:27:38.523Z,151.07
2019-04-05T00:30:08.389Z,155.87
2019-04-05T00:32:37.927Z,146.67
2019-04-05T00:35:08.011Z,148.37
2019-04-05T00:37:37.481Z,154.17
2019-04-05T00:40:09.165Z,148.27
2019-04-05T00:42:39.006Z,151.23
2019-04-05T00:45:08.624Z,148.50
2019-04-05T00:47:38.102Z,152.13
2019-04-05T00:50:07.937Z,156.60
2019-04-05T00:52:37.401Z,156.03
2019-04-05T00:55:07.215Z,166.47
2019-04-05T00:57:37.209Z,152.00
2019-04-05T01:00:07.332Z,158.37
2019-04-05T01:02:36.805Z,164.73
2019-04-05T01:05:07.787Z,164.43
2019-04-05T01:07:37.574Z,163.70
2019-04-05T01:10:07.495Z,153.60
2019-04-05T01:12:37.718Z,163.90
2019-04-05T01:15:09.888Z,165.03
2019-04-05T01:17:39.785Z,161.13
2019-04-05T01:20:10.139Z,158.17
2019-04-05T01:22:41.951Z,160.93
2019-04-05T01:25:12.456Z,157.27
2019-04-05T01:27:42.565Z,170.23
2019-04-05T01:30:14.612Z,161.97
2019-04-05T01:32:44.463Z,164.40
2019-04-05T01:35:14.398Z,164.63
2019-04-05T01:37:45.222Z,152.93
2019-04-05T01:40:15.411Z,165.53
2019-04-05T01:42:45.111Z,162.17
2019-04-05T01:45:14.811Z,156.93
2019-04-05T01:47:44.834Z,153.90
2019-04-05T01:50:14.622Z,164.73
2019-04-05T01:52:44.237Z,158.87
2019-04-05T01:55:13.941Z,162.40
2019-04-05T01:57:43.866Z,161.27
2019-04-05T02:00:14.109Z,164.40
2019-04-05T02:02:43.832Z,176.93
2019-04-05T02:05:13.446Z,163.17
2019-04-05T02:07:43.335Z,166.57
2019-04-05T02:10:13.662Z,164.43
2019-04-05T02:12:43.476Z,175.40
2019-04-05T02:15:21.796Z,166.73
2019-04-05T02:17:51.603Z,171.53
2019-04-05T02:20:21.439Z,171.20
2019-04-05T02:22:50.895Z,166.87
2019-04-05T02:25:20.439Z,167.50
2019-04-05T02:27:49.889Z,172.20
2019-04-05T02:30:19.654Z,176.30
2019-04-05T02:32:49.190Z,170.63
2019-04-05T02:35:19.555Z,183.57
2019-04-05T02:37:49.087Z,182.47
2019-04-05T02:40:18.953Z,178.83
2019-04-05T02:42:49.529Z,183.83
2019-04-05T02:45:21.004Z,180.90
2019-04-05T02:47:53.660Z,182.97
2019-04-05T02:50:25.234Z,189.13
2019-04-05T02:52:57.320Z,180.70
2019-04-05T02:55:27.999Z,191.20
2019-04-05T02:57:58.800Z,183.90
2019-04-05T03:00:29.229Z,196.70
2019-04-05T03:02:59.497Z,204.37
2019-04-05T03:05:28.978Z,190.43
2019-04-05T03:07:58.772Z,199.07
2019-04-05T03:10:46.457Z,193.07
2019-04-05T03:13:15.930Z,201.07
2019-04-05T03:15:45.881Z,196.33
2019-04-05T03:18:15.898Z,186.10
2019-04-05T03:20:45.560Z,189.37
2019-04-05T03:23:15.081Z,182.93
2019-04-05T03:25:48.173Z,188.27
2019-04-05T03:28:16.570Z,196.67
2019-04-05T03:30:46.255Z,188.47
2019-04-05T03:33:15.952Z,195.00
2019-04-05T03:35:45.830Z,191.47
2019-04-05T03:38:15.380Z,180.20
2019-04-05T03:40:44.840Z,201.77
2019-04-05T03:43:14.308Z,195.90
2019-04-05T03:45:43.941Z,194.77
2019-04-05T03:48:13.438Z,193.00
2019-04-05T03:50:45.136Z,186.37
2019-04-05T03:53:14.414Z,189.13
2019-04-05T03:55:44.277Z,191.70
2019-04-05T03:58:13.730Z,194.70
2019-04-05T04:00:43.224Z,190.27
2019-04-05T04:03:12.771Z,186.17
2019-04-05T04:05:42.226Z,188.97
2019-04-05T04:08:11.962Z,184.70
2019-04-05T04:10:41.436Z,186.83
2019-04-05T04:13:10.974Z,188.73
2019-04-05T04:15:40.487Z,188.30
2019-04-05T04:18:10.342Z,200.83
2019-04-05T04:20:50.889Z,190.80
2019-04-05T04:23:23.910Z,189.33
2019-04-05T04:25:54.367Z,182.60
2019-04-05T04:28:23.828Z,181.70
2019-04-05T04:30:53.756Z,189.23
2019-04-05T04:33:23.490Z,193.87
2019-04-05T04:35:53.604Z,210.10
2019-04-05T04:38:23.133Z,190.83
2019-04-05T04:40:52.620Z,197.03
2019-04-05T04:43:22.068Z,189.60
2019-04-05T04:45:51.909Z,200.40
2019-04-05T04:48:21.548Z,188.10
2019-04-05T04:50:51.249Z,192.17
2019-04-05T04:53:20.754Z,200.90
2019-04-05T04:55:50.493Z,190.80
2019-04-05T04:58:19.963Z,198.60
2019-04-05T05:00:49.737Z,180.20
2019-04-05T05:03:19.181Z,182.13
2019-04-05T05:05:48.916Z,183.20
2019-04-05T05:08:18.384Z,180.97
2019-04-05T05:10:48.459Z,187.43
2019-04-05T05:13:17.983Z,174.40
2019-04-05T05:15:47.548Z,190.63
2019-04-05T05:18:17.175Z,184.60
2019-04-05T05:20:46.673Z,183.97
2019-04-05T05:23:16.133Z,190.73
2019-04-05T05:25:47.020Z,185.00
2019-04-05T05:28:16.745Z,179.47
2019-04-05T05:30:46.377Z,174.03
2019-04-05T05:33:15.854Z,188.07
2019-04-05T05:35:45.401Z,179.87
2019-04-05T05:38:15.067Z,179.60
2019-04-05T05:40:44.525Z,194.93
2019-04-05T05:43:13.994Z,180.60
2019-04-05T05:45:43.473Z,170.40
2019-04-05T05:48:13.320Z,178.23
2019-04-05T05:50:42.974Z,188.07
2019-04-05T05:53:12.615Z,178.10
2019-04-05T05:55:42.378Z,168.80
2019-04-05T05:58:11.843Z,164.43
2019-04-05T06:00:41.304Z,167.27
2019-04-05T06:03:16.509Z,162.90
2019-04-05T06:05:44.898Z,168.10
2019-04-05T06:08:14.364Z,165.37
2019-04-05T06:10:43.817Z,162.73
2019-04-05T06:13:13.301Z,163.07
2019-04-05T06:15:42.774Z,162.20
2019-04-05T06:18:12.834Z,173.23
2019-04-05T06:20:42.759Z,168.33
2019-04-05T06:23:12.233Z,156.30
2019-04-05T06:25:41.714Z,149.77
2019-04-05T06:28:11.198Z,150.73
2019-04-05T06:30:40.725Z,151.57
2019-04-05T06:33:10.558Z,147.83
2019-04-05T06:35:40.372Z,148.70
2019-04-05T06:38:09.859Z,151.47
2019-04-05T06:40:41.286Z,147.07
2019-04-05T06:43:10.911Z,144.70
2019-04-05T06:45:40.974Z,148.77
2019-04-05T06:48:19.193Z,140.03
2019-04-05T06:50:41.709Z,138.17
2019-04-05T06:53:11.183Z,133.13
2019-04-05T06:55:40.924Z,130.13
2019-04-05T06:58:10.702Z,140.63
2019-04-05T07:00:56.094Z,144.93
2019-04-05T07:03:13.738Z,135.67
2019-04-05T07:05:43.278Z,138.67
2019-04-05T07:08:12.777Z,142.73
2019-04-05T07:10:45.073Z,138.10
2019-04-05T07:13:13.418Z,146.40
2019-04-05T07:15:42.885Z,141.83
2019-04-05T07:18:12.367Z,153.07
2019-04-05T07:20:41.819Z,139.70
2019-04-05T07:23:11.310Z,138.37
2019-04-05T07:25:40.778Z,151.77
2019-04-05T07:28:10.265Z,149.17
2019-04-05T07:30:39.725Z,144.93
2019-04-05T07:33:09.219Z,153.23
2019-04-05T07:35:38.679Z,141.20
2019-04-05T07:38:09.730Z,143.77
2019-04-05T07:40:39.384Z,153.47
2019-04-05T07:43:08.865Z,142.97
2019-04-05T07:45:38.322Z,154.73
2019-04-05T07:48:07.797Z,142.47
2019-04-05T07:50:37.258Z,139.70
2019-04-05T07:53:07.041Z,143.07
2019-04-05T07:55:36.502Z,136.27
2019-04-05T07:58:06.255Z,133.20
2019-04-05T08:00:48.416Z,133.43
2019-04-05T08:03:18.331Z,124.70
2019-04-05T08:05:48.649Z,122.07
2019-04-05T08:08:42.399Z,122.40
2019-04-05T08:11:12.260Z,121.27
2019-04-05T08:13:42.715Z,113.40
2019-04-05T08:16:12.178Z,122.45
2019-04-05T08:18:41.838Z,114.88
2019-04-05T08:21:11.280Z,115.17
2019-04-05T08:23:41.057Z,109.52
2019-04-05T08:26:10.781Z,108.70
2019-04-05T08:28:40.265Z,103.35
2019-04-05T08:31:11.046Z,114.45
2019-04-05T08:33:40.940Z,102.35
2019-04-05T08:36:10.400Z,98.27
2019-04-05T08:38:40.117Z,103.90
2019-04-05T08:41:09.627Z,97.02
2019-04-05T08:43:39.160Z,100.45
2019-04-05T08:46:08.640Z,104.65
2019-04-05T08:48:38.120Z,97.80
2019-04-05T08:51:07.658Z,91.50
2019-04-05T08:53:37.132Z,90.20
2019-04-05T08:56:06.589Z,91.28
2019-04-05T08:58:36.065Z,95.40
2019-04-05T09:01:05.602Z,96.22
2019-04-05T09:03:35.069Z,86.32
2019-04-05T09:06:04.589Z,90.28
2019-04-05T09:08:34.094Z,96.30
2019-04-05T09:11:03.536Z,94.60
2019-04-05T09:13:35.497Z,90.42
2019-04-05T09:16:05.284Z,96.92
2019-04-05T09:18:34.850Z,97.27
2019-04-05T09:21:04.305Z,96.32
2019-04-05T09:23:34.108Z,100.62
2019-04-05T09:26:03.742Z,99.03
2019-04-05T09:28:33.584Z,96.50
2019-04-05T09:31:03.050Z,91.97
2019-04-05T09:33:32.521Z,91.57
2019-04-05T09:36:01.984Z,88.75
2019-04-05T09:38:31.453Z,93.33
2019-04-05T09:41:00.906Z,92.47
2019-04-05T09:43:30.371Z,86.10
2019-04-05T09:45:59.829Z,88.05
2019-04-05T09:48:29.285Z,87.47
2019-04-05T09:50:58.927Z,86.75
2019-04-05T09:53:28.403Z,90.57
2019-04-05T09:55:58.057Z,87.47
2019-04-05T09:58:27.557Z,87.97
2019-04-05T10:00:57.018Z,84.92
2019-04-05T10:03:26.822Z,92.10
2019-04-05T10:05:56.308Z,92.75
2019-04-05T10:08:25.773Z,99.60
2019-04-05T10:11:07.657Z,91.15
2019-04-05T10:13:37.151Z,93.00
2019-04-05T10:16:06.612Z,95.50
2019-04-05T10:18:36.078Z,99.07
2019-04-05T10:21:05.780Z,99.05
2019-04-05T10:23:35.247Z,108.57
2019-04-05T10:26:04.814Z,101.38
2019-04-05T10:28:34.294Z,103.45
2019-04-05T10:31:03.813Z,92.22
2019-04-05T10:33:33.353Z,112.32
2019-04-05T10:36:02.806Z,95.35
2019-04-05T10:38:32.264Z,91.82
2019-04-05T10:41:01.712Z,94.90
2019-04-05T10:43:31.441Z,89.20
2019-04-05T10:46:00.883Z,82.47
2019-04-05T10:48:30.350Z,90.72
2019-04-05T10:50:59.802Z,82.50
2019-04-05T10:53:29.395Z,83.82
2019-04-05T10:55:58.856Z,85.50
2019-04-05T10:58:28.316Z,88.15
2019-04-05T11:00:57.938Z,84.67
2019-04-05T11:03:27.394Z,86.92
2019-04-05T11:05:57.256Z,81.57
2019-04-05T11:08:26.723Z,85.25
2019-04-05T11:10:56.185Z,94.03
2019-04-05T11:13:25.655Z,78.83
2019-04-05T11:15:55.119Z,67.97
2019-04-05T11:18:24.581Z,74.75
2019-04-05T11:20:54.025Z,81.42
2019-04-05T11:23:23.583Z,82.45
2019-04-05T11:25:53.040Z,79.55
2019-04-05T11:28:22.529Z,77.17
2019-04-05T11:30:52.337Z,82.45
2019-04-05T11:33:21.802Z,81.85
2019-04-05T11:35:51.545Z,77.92
2019-04-05T11:38:24.101Z,110.75
2019-04-05T11:40:52.759Z,80.12
2019-04-05T11:43:26.222Z,83.67
2019-04-05T11:45:55.563Z,79.22
2019-04-05T11:48:25.162Z,77.35
2019-04-05T11:50:54.657Z,80.83
2019-04-05T11:53:24.099Z,77.05
2019-04-05T11:55:53.566Z,83.42
2019-04-05T11:58:23.170Z,74.95
2019-04-05T12:01:00.053Z,72.47
2019-04-05T12:03:33.547Z,69.45
2019-04-05T12:06:03.021Z,80.90
2019-04-05T12:08:32.484Z,73.35
2019-04-05T12:11:02.026Z,75.08
2019-04-05T12:13:31.493Z,69.45
2019-04-05T12:16:00.941Z,74.67
2019-04-05T12:18:30.399Z,70.30
2019-04-05T12:21:00.755Z,94.25
2019-04-05T12:23:33.378Z,72.22
2019-04-05T12:26:04.742Z,76.22
2019-04-05T12:28:33.323Z,98.85
2019-04-05T12:31:03.397Z,72.85
2019-04-05T12:33:32.830Z,108.45
2019-04-05T12:36:02.299Z,76.25
2019-04-05T12:38:33.128Z,69.12
2019-04-05T12:41:04.505Z,67.95
2019-04-05T12:43:33.972Z,72.27
2019-04-05T12:46:04.211Z,72.22
2019-04-05T12:48:33.759Z,69.70
2019-04-05T12:51:05.475Z,77.15
2019-04-05T12:53:34.375Z,73.05
2019-04-05T12:56:04.719Z,74.05
2019-04-05T12:58:34.167Z,80.67
2019-04-05T13:01:03.889Z,74.12
2019-04-05T13:03:33.350Z,77.37
2019-04-05T13:06:02.903Z,77.72
2019-04-05T13:08:32.354Z,81.47
2019-04-05T13:11:02.377Z,76.72
2019-04-05T13:13:32.198Z,87.92
2019-04-05T13:16:01.664Z,79.37
2019-04-05T13:18:31.801Z,80.83
2019-04-05T13:21:13.995Z,83.40
2019-04-05T13:23:33.731Z,82.37
2019-04-05T13:26:03.663Z,83.62
2019-04-05T13:28:33.107Z,78.47
2019-04-05T13:31:02.918Z,101.25
2019-04-05T13:33:32.351Z,79.32
2019-04-05T13:36:01.814Z,77.53
2019-04-05T13:38:31.267Z,82.45
2019-04-05T13:41:01.655Z,76.47
2019-04-05T13:43:33.140Z,77.80
2019-04-05T13:46:02.609Z,87.00
2019-04-05T13:48:32.348Z,83.80
2019-04-05T13:51:01.834Z,75.10
2019-04-05T13:53:31.378Z,74.90
2019-04-05T13:56:01.163Z,71.28
2019-04-05T13:58:30.618Z,57.20
2019-04-05T14:01:00.363Z,70.45
2019-04-05T14:03:30.342Z,65.85
2019-04-05T14:05:59.849Z,63.00
2019-04-05T14:08:29.353Z,73.02
2019-04-05T14:11:00.397Z,77.40
2019-04-05T14:13:29.846Z,67.58
2019-04-05T14:15:59.352Z,69.45
2019-04-05T14:18:28.808Z,68.33
2019-04-05T14:20:58.335Z,69.65
2019-04-05T14:23:28.087Z,69.40
2019-04-05T14:25:59.976Z,69.10
2019-04-05T14:28:29.472Z,64.37
2019-04-05T14:31:02.257Z,59.67
2019-04-05T14:33:30.611Z,58.92
2019-04-05T14:36:00.077Z,56.58
2019-04-05T14:38:31.324Z,60.30
2019-04-05T14:41:01.021Z,57.80
2019-04-05T14:43:30.501Z,60.15
2019-04-05T14:46:02.667Z,57.95
2019-04-05T14:48:31.991Z,51.63
2019-04-05T14:51:01.657Z,52.60
2019-04-05T14:53:32.371Z,49.80
2019-04-05T14:56:02.577Z,52.38
2019-04-05T14:58:32.056Z,52.05
2019-04-05T15:01:01.524Z,50.92
2019-04-05T15:03:30.992Z,52.60
2019-04-05T15:06:00.470Z,52.60
2019-04-05T15:08:30.250Z,53.28
2019-04-05T15:10:59.744Z,53.78
2019-04-05T15:13:29.308Z,46.92
2019-04-05T15:15:58.830Z,47.75
2019-04-05T15:18:28.284Z,56.85
2019-04-05T15:20:57.867Z,49.63
2019-04-05T15:23:27.427Z,50.73
2019-04-05T15:25:56.952Z,47.03
2019-04-05T15:28:26.427Z,46.55
2019-04-05T15:30:56.598Z,41.55
2019-04-05T15:33:27.861Z,47.35
2019-04-05T15:36:02.144Z,49.50
2019-04-05T15:38:31.848Z,50.08
2019-04-05T15:41:00.605Z,49.73
2019-04-05T15:43:30.066Z,49.45
2019-04-05T15:45:59.810Z,48.28
2019-04-05T15:48:29.727Z,47.85
2019-04-05T15:50:59.473Z,48.68
2019-04-05T15:53:31.875Z,42.60
2019-04-05T15:56:04.026Z,46.63
2019-04-05T15:58:34.056Z,42.25
2019-04-05T16:01:04.470Z,42.40
2019-04-05T16:03:36.871Z,41.13
2019-04-05T16:06:05.872Z,42.73
2019-04-05T16:08:35.603Z,40.75
2019-04-05T16:11:05.527Z,50.17
2019-04-05T16:13:35.230Z,40.28
2019-04-05T16:16:04.705Z,40.55
2019-04-05T16:18:34.160Z,41.48
2019-04-05T16:21:03.622Z,37.60
2019-04-05T16:23:33.087Z,40.85
2019-04-05T16:26:02.634Z,41.40
2019-04-05T16:28:32.193Z,38.05
2019-04-05T16:31:01.948Z,37.38
2019-04-05T16:33:31.397Z,46.63
2019-04-05T16:36:05.454Z,41.00
2019-04-05T16:38:29.700Z,38.73
2019-04-05T16:40:59.179Z,38.50
2019-04-05T16:43:28.644Z,42.80
2019-04-05T16:45:58.123Z,38.67
2019-04-05T16:48:27.613Z,43.33
2019-04-05T16:51:00.029Z,35.10
2019-04-05T16:53:30.647Z,40.13
2019-04-05T16:56:00.420Z,33.13
2019-04-05T16:58:36.208Z,35.77
2019-04-05T17:01:05.867Z,37.50
2019-04-05T17:03:35.417Z,34.40
2019-04-05T17:06:04.874Z,35.50
2019-04-05T17:08:34.336Z,38.37
2019-04-05T17:11:03.814Z,33.10
2019-04-05T17:13:33.286Z,49.60
2019-04-05T17:16:02.743Z,50.40
2019-04-05T17:18:32.206Z,56.13
2019-04-05T17:21:01.688Z,56.53
2019-04-05T17:23:33.155Z,54.27
2019-04-05T17:26:02.289Z,47.40
2019-04-05T17:28:31.758Z,43.83
2019-04-05T17:31:01.536Z,46.93
2019-04-05T17:33:31.027Z,44.67
2019-04-05T17:36:07.394Z,54.57
2019-04-05T17:38:36.851Z,51.17
2019-04-05T17:41:06.467Z,54.03
2019-04-05T17:43:38.653Z,49.77
2019-04-05T17:46:08.404Z,50.23
2019-04-05T17:48:37.868Z,57.07
2019-04-05T17:51:07.430Z,57.30
2019-04-05T17:53:36.884Z,50.10
2019-04-05T17:56:06.359Z,63.37
2019-04-05T17:58:37.208Z,68.33
2019-04-05T18:01:06.765Z,55.37
2019-04-05T18:03:36.232Z,57.57
2019-04-05T18:06:05.748Z,51.57
2019-04-05T18:08:35.206Z,50.73
2019-04-05T18:11:06.117Z,52.70
2019-04-05T18:13:53.128Z,50.07
2019-04-05T18:16:40.866Z,45.33
2019-04-05T18:19:09.804Z,75.77
2019-04-05T18:21:38.750Z,49.60
2019-04-05T18:24:07.936Z,55.27
2019-04-05T18:26:36.884Z,54.20
2019-04-05T18:29:06.467Z,58.93
2019-04-05T18:31:35.888Z,55.47
2019-04-05T18:34:05.611Z,56.87
2019-04-05T18:36:35.074Z,53.83
2019-04-05T18:39:07.330Z,50.50
2019-04-05T18:41:36.797Z,44.37
2019-04-05T18:44:06.261Z,49.67
2019-04-05T18:46:35.713Z,47.43
2019-04-05T18:49:05.188Z,50.37
2019-04-05T18:51:34.975Z,46.37
2019-04-05T18:54:04.585Z,48.23
2019-04-05T18:56:34.037Z,42.73
2019-04-05T18:59:03.516Z,35.10
2019-04-05T19:01:32.998Z,34.20
2019-04-05T19:04:05.341Z,37.90
2019-04-05T19:06:33.883Z,36.43
2019-04-05T19:09:05.017Z,36.50
2019-04-05T19:11:34.480Z,38.53
2019-04-05T19:14:03.954Z,40.03
2019-04-05T19:16:33.415Z,52.40
2019-04-05T19:19:03.053Z,41.57
2019-04-05T19:21:32.539Z,37.97
2019-04-05T19:24:02.041Z,58.63
2019-04-05T19:26:31.494Z,60.83
2019-04-05T19:29:01.006Z,69.07
2019-04-05T19:49:12.211Z,38.90
2019-04-05T19:51:41.675Z,25.23
2019-04-05T19:54:11.151Z,34.83
2019-04-05T19:56:40.600Z,20.90
2019-04-05T19:59:10.053Z,20.53
2019-04-05T20:01:39.522Z,30.10
2019-04-05T20:04:09.006Z,24.03
2019-04-05T20:06:38.476Z,25.30
2019-04-05T20:09:08.003Z,23.13
2019-04-05T20:11:37.473Z,26.97
2019-04-05T20:14:06.957Z,23.80
2019-04-05T20:16:36.440Z,22.90
2019-04-05T20:19:05.918Z,22.30
2019-04-05T20:21:35.375Z,24.43
2019-04-05T20:24:13.788Z,23.00
2019-04-05T20:26:36.938Z,22.23
2019-04-05T20:29:06.660Z,24.27
2019-04-05T20:31:36.131Z,24.80
2019-04-05T20:34:05.894Z,23.17
2019-04-05T20:36:35.349Z,25.73
2019-04-05T20:39:07.055Z,25.10
2019-04-05T20:41:36.538Z,30.47
2019-04-05T20:44:06.007Z,25.83
2019-04-05T20:46:35.750Z,26.53
2019-04-05T20:49:05.465Z,31.07
2019-04-05T20:51:35.269Z,27.27
2019-04-05T20:54:04.900Z,24.30
2019-04-05T20:56:34.357Z,24.17
2019-04-05T20:59:03.838Z,23.87
2019-04-05T21:01:33.293Z,28.37
2019-04-05T21:04:02.753Z,22.50
2019-04-05T21:06:32.219Z,25.47
2019-04-05T21:09:04.479Z,23.27
2019-04-05T21:11:36.145Z,26.90
2019-04-05T21:14:05.600Z,24.77
2019-04-05T21:16:35.564Z,23.20
2019-04-05T21:19:05.183Z,23.13
2019-04-05T21:21:34.718Z,23.63
2019-04-05T21:24:04.157Z,22.83
2019-04-05T21:26:33.612Z,24.23
2019-04-05T21:29:03.090Z,20.80
2019-04-05T21:31:32.575Z,23.13
2019-04-05T21:34:02.048Z,25.73
2019-04-05T21:36:31.504Z,22.37
2019-04-05T21:39:00.957Z,26.50
2019-04-05T21:41:30.411Z,26.80
2019-04-05T21:43:59.894Z,26.97
2019-04-05T21:46:29.362Z,28.20
2019-04-05T21:48:58.867Z,22.47
2019-04-05T21:51:28.309Z,24.40
2019-04-05T21:53:57.781Z,24.20
2019-04-05T21:56:27.246Z,22.80
2019-04-05T21:58:56.721Z,27.37
2019-04-05T22:01:26.940Z,25.43
2019-04-05T22:03:56.990Z,26.73
2019-04-05T22:06:26.922Z,23.87
2019-04-05T22:08:56.474Z,27.63
2019-04-05T22:11:27.721Z,26.67
2019-04-05T22:13:57.079Z,26.00
2019-04-05T22:16:26.547Z,29.83
2019-04-05T22:18:56.037Z,30.00
2019-04-05T22:21:25.777Z,32.43
2019-04-05T22:23:55.255Z,29.60
2019-04-05T22:26:24.696Z,32.30
2019-04-05T22:28:54.171Z,28.50
2019-04-05T22:31:23.640Z,30.10
2019-04-05T22:33:53.159Z,32.83
2019-04-05T22:36:22.630Z,31.93
2019-04-05T22:38:52.088Z,37.63
2019-04-05T22:41:21.560Z,40.00
2019-04-05T22:43:51.007Z,47.77
2019-04-05T22:46:20.455Z,46.43
2019-04-05T22:48:49.898Z,45.37
2019-04-05T22:51:19.352Z,49.13
2019-04-05T22:53:48.809Z,53.23
2019-04-05T22:56:18.258Z,50.60
2019-04-05T22:58:47.712Z,45.70
2019-04-05T23:01:17.163Z,45.40
2019-04-05T23:03:46.778Z,51.50
2019-04-05T23:06:16.522Z,45.80
2019-04-05T23:08:45.963Z,42.47
2019-04-05T23:11:15.462Z,39.60
2019-04-05T23:13:44.899Z,37.23
2019-04-05T23:16:14.372Z,37.50
2019-04-05T23:18:43.811Z,37.43
2019-04-05T23:21:13.275Z,36.17
2019-04-05T23:23:42.714Z,34.93
2019-04-05T23:26:12.195Z,40.27
2019-04-05T23:28:41.673Z,33.40
2019-04-05T23:31:11.298Z,34.50
2019-04-05T23:33:40.845Z,35.57
2019-04-05T23:36:10.315Z,35.77
2019-04-05T23:38:39.825Z,33.50
2019-04-05T23:41:09.234Z,35.87
2019-04-05T23:43:38.933Z,32.70
2019-04-05T23:46:08.390Z,38.47
2019-04-05T23:48:37.831Z,41.00
2019-04-05T23:51:07.355Z,38.57
2019-04-05T23:53:36.812Z,40.93
2019-04-05T23:56:06.290Z,41.10
2019-04-05T23:58:35.724Z,42.00
